www.cux-wetter.de
Wetterdaten: Samstag, 10.02.2007
Datum Zeit Temp. A. Feuchte A. Luftdruck Regen Wind Richtung Richtung Sonnenschein Solar Taupunkt Windchill Windben
10.02.2007 00:00 0,9 C 86 % 1009,5 hPa 0,0 l/m 24,5 km/h (4 Bft) O 85 0 min 0 W/m -1,2 C -10,3 C 24,5 km/h (4 Bft)
10.02.2007 00:15 0,8 C 85 % 1009,5 hPa 0,0 l/m 34,2 km/h (5 Bft) O 100 0 min 0 W/m -1,4 C -13,4 C 34,2 km/h (5 Bft)
10.02.2007 00:30 0,7 C 84 % 1010,5 hPa 0,0 l/m 25,0 km/h (4 Bft) SO 125 0 min 0 W/m -1,7 C -10,8 C 25,0 km/h (4 Bft)
10.02.2007 00:45 0,6 C 85 % 1009,5 hPa 0,0 l/m 21,0 km/h (4 Bft) O 95 0 min 0 W/m -1,6 C -9,3 C 21,0 km/h (4 Bft)
10.02.2007 01:00 0,5 C 85 % 1010,5 hPa 0,0 l/m 21,0 km/h (4 Bft) O 95 0 min 0 W/m -1,7 C -9,4 C 21,0 km/h (4 Bft)
10.02.2007 01:15 0,4 C 86 % 1009,5 hPa 0,0 l/m 21,0 km/h (4 Bft) O 95 0 min 0 W/m -1,7 C -9,6 C 21,0 km/h (4 Bft)
10.02.2007 01:30 0,4 C 85 % 1010,5 hPa 0,0 l/m 25,6 km/h (4 Bft) O-SO 120 0 min 0 W/m -1,8 C -11,4 C 25,6 km/h (4 Bft)
10.02.2007 01:45 0,4 C 86 % 1010,5 hPa 0,0 l/m 21,8 km/h (4 Bft) O-SO 120 0 min 0 W/m -1,7 C -9,9 C 21,8 km/h (4 Bft)
10.02.2007 02:00 0,5 C 86 % 1010,5 hPa 0,0 l/m 24,4 km/h (4 Bft) SO 125 0 min 0 W/m -1,6 C -10,8 C 24,4 km/h (4 Bft)
10.02.2007 02:15 0,7 C 83 % 1009,5 hPa 0,0 l/m 28,0 km/h (5 Bft) O-SO 115 0 min 0 W/m -1,8 C -11,8 C 28,0 km/h (5 Bft)
10.02.2007 02:31 0,6 C 82 % 1009,5 hPa 0,0 l/m 25,6 km/h (4 Bft) O-SO 115 0 min 0 W/m -2,1 C -11,1 C 25,6 km/h (4 Bft)
10.02.2007 02:46 0,6 C 81 % 1009,5 hPa 0,0 l/m 35,8 km/h (5 Bft) O-SO 110 0 min 0 W/m -2,3 C -14,1 C 35,8 km/h (5 Bft)
10.02.2007 03:01 0,5 C 81 % 1009,5 hPa 0,0 l/m 36,9 km/h (5 Bft) O-SO 120 0 min 0 W/m -2,4 C -14,5 C 36,9 km/h (5 Bft)
10.02.2007 03:16 0,5 C 82 % 1009,5 hPa 0,0 l/m 34,8 km/h (5 Bft) O-SO 110 0 min 0 W/m -2,2 C -14,0 C 34,8 km/h (5 Bft)
10.02.2007 03:31 0,3 C 82 % 1009,5 hPa 0,0 l/m 33,6 km/h (5 Bft) O-SO 105 0 min 0 W/m -2,4 C -14,0 C 33,6 km/h (5 Bft)
10.02.2007 03:46 0,3 C 83 % 1009,5 hPa 0,0 l/m 31,7 km/h (5 Bft) O 95 0 min 0 W/m -2,2 C -13,5 C 31,7 km/h (5 Bft)
10.02.2007 04:01 0,4 C 83 % 1009,5 hPa 0,0 l/m 39,8 km/h (6 Bft) SO 125 0 min 0 W/m -2,1 C -15,3 C 39,8 km/h (6 Bft)
10.02.2007 04:16 0,5 C 84 % 1009,5 hPa 0,0 l/m 28,5 km/h (5 Bft) O-SO 105 0 min 0 W/m -1,9 C -12,2 C 28,5 km/h (5 Bft)
10.02.2007 04:31 0,5 C 84 % 1009,5 hPa 0,0 l/m 31,3 km/h (5 Bft) O-SO 120 0 min 0 W/m -1,9 C -13,1 C 31,3 km/h (5 Bft)
10.02.2007 04:46 0,5 C 84 % 1009,5 hPa 0,0 l/m 38,3 km/h (6 Bft) O-SO 120 0 min 0 W/m -1,9 C -14,8 C 38,3 km/h (6 Bft)
10.02.2007 05:01 0,4 C 84 % 1009,5 hPa 0,0 l/m 45,7 km/h (6 Bft) O-SO 120 0 min 0 W/m -2,0 C -16,4 C 45,7 km/h (6 Bft)
10.02.2007 05:15 0,4 C 84 % 1009,5 hPa 0,0 l/m 40,1 km/h (6 Bft) O-SO 120 0 min 0 W/m -2,0 C -15,4 C 40,1 km/h (6 Bft)
10.02.2007 05:30 0,4 C 85 % 1009,5 hPa 0,0 l/m 26,5 km/h (4 Bft) O-SO 105 0 min 0 W/m -1,8 C -11,7 C 26,5 km/h (4 Bft)
10.02.2007 05:45 0,3 C 83 % 1009,5 hPa 0,0 l/m 32,9 km/h (5 Bft) O-SO 120 0 min 0 W/m -2,2 C -13,8 C 32,9 km/h (5 Bft)
10.02.2007 06:00 0,2 C 80 % 1009,5 hPa 0,0 l/m 27,1 km/h (5 Bft) O-SO 120 0 min 0 W/m -2,8 C -12,2 C 27,1 km/h (5 Bft)
10.02.2007 06:15 0,2 C 81 % 1009,5 hPa 0,0 l/m 32,0 km/h (5 Bft) SO 125 0 min 0 W/m -2,7 C -13,7 C 32,0 km/h (5 Bft)
10.02.2007 06:30 0,1 C 80 % 1009,5 hPa 0,0 l/m 25,0 km/h (4 Bft) O-SO 115 0 min 0 W/m -2,9 C -11,6 C 25,0 km/h (4 Bft)
10.02.2007 06:45 0,0 C 80 % 1009,5 hPa 0,0 l/m 42,9 km/h (6 Bft) O-SO 105 0 min 0 W/m -3,0 C -16,5 C 42,9 km/h (6 Bft)
10.02.2007 07:00 0,0 C 80 % 1009,5 hPa 0,0 l/m 26,4 km/h (4 Bft) O-SO 110 0 min 0 W/m -3,0 C -12,2 C 26,4 km/h (4 Bft)
10.02.2007 07:15 -0,2 C 81 % 1009,5 hPa 0,0 l/m 24,3 km/h (4 Bft) SO 135 0 min 0 W/m -3,1 C -11,7 C 24,3 km/h (4 Bft)
10.02.2007 07:30 -0,4 C 80 % 1009,5 hPa 0,0 l/m 36,3 km/h (5 Bft) O 100 0 min 0 W/m -3,4 C -15,7 C 36,3 km/h (5 Bft)
10.02.2007 07:45 -0,5 C 81 % 1009,5 hPa 0,0 l/m 33,3 km/h (5 Bft) O-SO 115 0 min 0 W/m -3,3 C -15,1 C 33,3 km/h (5 Bft)
10.02.2007 08:00 -0,6 C 82 % 1009,5 hPa 0,0 l/m 29,6 km/h (5 Bft) O-SO 110 0 min 0 W/m -3,3 C -14,1 C 29,6 km/h (5 Bft)
10.02.2007 08:15 -0,7 C 82 % 1009,5 hPa 0,0 l/m 31,8 km/h (5 Bft) O-SO 115 0 min 0 W/m -3,4 C -14,9 C 31,8 km/h (5 Bft)
10.02.2007 08:30 0,3 C 80 % 1009,5 hPa 0,0 l/m 27,6 km/h (5 Bft) SO 125 0 min 0 W/m -2,7 C -12,2 C 27,6 km/h (5 Bft)
10.02.2007 08:45 0,5 C 79 % 1009,5 hPa 0,0 l/m 27,6 km/h (5 Bft) SO 125 0 min 0 W/m -2,7 C -11,9 C 27,6 km/h (5 Bft)
10.02.2007 09:00 0,2 C 77 % 1009,5 hPa 0,0 l/m 33,2 km/h (5 Bft) O 100 0 min 0 W/m -3,3 C -14,0 C 33,2 km/h (5 Bft)
10.02.2007 09:15 0,2 C 77 % 1009,5 hPa 0,0 l/m 33,1 km/h (5 Bft) O 100 0 min 0 W/m -3,3 C -14,0 C 33,1 km/h (5 Bft)
10.02.2007 09:30 0,4 C 75 % 1009,5 hPa 0,0 l/m 33,6 km/h (5 Bft) O-SO 115 0 min 0 W/m -3,5 C -13,9 C 33,6 km/h (5 Bft)
10.02.2007 09:45 0,5 C 73 % 1009,5 hPa 0,0 l/m 35,6 km/h (5 Bft) O-SO 120 0 min 0 W/m -3,8 C -14,2 C 35,6 km/h (5 Bft)
10.02.2007 10:00 0,6 C 73 % 1009,5 hPa 0,0 l/m 36,5 km/h (5 Bft) O-SO 115 0 min 0 W/m -3,7 C -14,3 C 36,5 km/h (5 Bft)
10.02.2007 10:15 0,4 C 73 % 1010,5 hPa 0,0 l/m 41,4 km/h (6 Bft) O-SO 105 0 min 0 W/m -3,9 C -15,6 C 41,4 km/h (6 Bft)
10.02.2007 10:30 0,5 C 73 % 1010,5 hPa 0,0 l/m 33,9 km/h (5 Bft) O-SO 110 0 min 0 W/m -3,8 C -13,8 C 33,9 km/h (5 Bft)
10.02.2007 10:45 0,5 C 73 % 1010,5 hPa 0,0 l/m 38,9 km/h (6 Bft) O-SO 120 0 min 0 W/m -3,8 C -15,0 C 38,9 km/h (6 Bft)
10.02.2007 11:00 0,3 C 71 % 1010,5 hPa 0,0 l/m 36,3 km/h (5 Bft) O 95 0 min 0 W/m -4,3 C -14,7 C 36,3 km/h (5 Bft)
10.02.2007 11:15 0,6 C 71 % 1009,5 hPa 0,0 l/m 37,0 km/h (5 Bft) O 80 0 min 0 W/m -4,0 C -14,4 C 37,0 km/h (5 Bft)
10.02.2007 11:30 0,1 C 72 % 1010,5 hPa 0,0 l/m 43,2 km/h (6 Bft) O 100 0 min 0 W/m -4,3 C -16,4 C 43,2 km/h (6 Bft)
10.02.2007 11:45 0,1 C 72 % 1010,5 hPa 0,0 l/m 41,3 km/h (6 Bft) O-SO 110 0 min 0 W/m -4,3 C -16,1 C 41,3 km/h (6 Bft)
10.02.2007 12:00 0,3 C 71 % 1010,5 hPa 0,0 l/m 38,1 km/h (6 Bft) O-SO 105 0 min 0 W/m -4,3 C -15,1 C 38,1 km/h (6 Bft)
10.02.2007 12:15 0,4 C 71 % 1010,5 hPa 0,9 l/m 37,3 km/h (5 Bft) O 90 0 min 0 W/m -4,2 C -14,8 C 37,3 km/h (5 Bft)
10.02.2007 12:30 0,6 C 71 % 1010,5 hPa 0,0 l/m 40,9 km/h (6 Bft) O 90 0 min 0 W/m -4,0 C -15,2 C 40,9 km/h (6 Bft)
10.02.2007 12:45 0,5 C 70 % 1010,5 hPa 0,0 l/m 39,1 km/h (6 Bft) O-SO 110 0 min 0 W/m -4,3 C -15,0 C 39,1 km/h (6 Bft)
10.02.2007 13:00 0,4 C 71 % 1010,5 hPa 0,0 l/m 35,9 km/h (5 Bft) O 100 0 min 0 W/m -4,2 C -14,4 C 35,9 km/h (5 Bft)
10.02.2007 13:15 0,6 C 70 % 1009,5 hPa 0,0 l/m 30,3 km/h (5 Bft) O 100 0 min 0 W/m -4,2 C -12,7 C 30,3 km/h (5 Bft)
10.02.2007 13:30 0,7 C 70 % 1009,5 hPa 0,0 l/m 35,1 km/h (5 Bft) O-SO 105 0 min 0 W/m -4,1 C -13,8 C 35,1 km/h (5 Bft)
10.02.2007 13:45 0,9 C 69 % 1009,5 hPa 0,0 l/m 39,5 km/h (6 Bft) O-SO 110 0 min 0 W/m -4,1 C -14,5 C 39,5 km/h (6 Bft)
10.02.2007 14:00 1,0 C 70 % 1009,5 hPa 0,0 l/m 41,4 km/h (6 Bft) O-SO 110 0 min 0 W/m -3,8 C -14,7 C 41,4 km/h (6 Bft)
10.02.2007 14:15 1,1 C 68 % 1009,5 hPa 0,0 l/m 36,8 km/h (5 Bft) O-SO 110 0 min 0 W/m -4,1 C -13,6 C 36,8 km/h (5 Bft)
10.02.2007 14:30 1,2 C 69 % 1009,5 hPa 0,0 l/m 39,3 km/h (6 Bft) O-SO 110 0 min 0 W/m -3,8 C -14,0 C 39,3 km/h (6 Bft)
10.02.2007 14:45 1,3 C 68 % 1009,5 hPa 0,0 l/m 41,8 km/h (6 Bft) SO 125 0 min 0 W/m -3,9 C -14,4 C 41,8 km/h (6 Bft)
10.02.2007 15:00 1,4 C 67 % 1009,5 hPa 0,0 l/m 37,2 km/h (5 Bft) SO 135 0 min 0 W/m -4,0 C -13,3 C 37,2 km/h (5 Bft)
10.02.2007 15:15 1,1 C 67 % 1009,5 hPa 0,0 l/m 47,6 km/h (6 Bft) O-SO 105 0 min 0 W/m -4,3 C -15,6 C 47,6 km/h (6 Bft)
10.02.2007 15:30 0,7 C 68 % 1009,5 hPa 0,0 l/m 35,9 km/h (5 Bft) O-SO 115 0 min 0 W/m -4,5 C -14,0 C 35,9 km/h (5 Bft)
10.02.2007 15:45 0,5 C 69 % 1010,5 hPa 0,0 l/m 33,5 km/h (5 Bft) O-SO 115 0 min 0 W/m -4,5 C -13,7 C 33,5 km/h (5 Bft)
10.02.2007 16:00 0,4 C 71 % 1010,5 hPa 0,0 l/m 33,4 km/h (5 Bft) O-SO 110 0 min 0 W/m -4,2 C -13,8 C 33,4 km/h (5 Bft)
10.02.2007 16:15 0,4 C 72 % 1010,5 hPa 0,0 l/m 23,8 km/h (4 Bft) SO 130 0 min 0 W/m -4,0 C -10,7 C 23,8 km/h (4 Bft)
10.02.2007 16:30 0,2 C 72 % 1010,5 hPa 0,0 l/m 38,2 km/h (6 Bft) O-SO 115 0 min 0 W/m -4,2 C -15,3 C 38,2 km/h (6 Bft)
10.02.2007 16:45 0,1 C 72 % 1010,5 hPa 0,0 l/m 32,3 km/h (5 Bft) O-SO 120 0 min 0 W/m -4,3 C -13,9 C 32,3 km/h (5 Bft)
10.02.2007 17:00 0,0 C 72 % 1010,5 hPa 0,0 l/m 40,6 km/h (6 Bft) O 95 0 min 0 W/m -4,4 C -16,1 C 40,6 km/h (6 Bft)
10.02.2007 17:15 1,0 C 70 % 1010,5 hPa 0,0 l/m 35,2 km/h (5 Bft) O-SO 110 0 min 0 W/m -3,8 C -13,4 C 35,2 km/h (5 Bft)
10.02.2007 17:30 1,1 C 69 % 1010,5 hPa 0,0 l/m 34,9 km/h (5 Bft) O-SO 115 0 min 0 W/m -3,9 C -13,2 C 34,9 km/h (5 Bft)
10.02.2007 17:45 0,3 C 71 % 1010,5 hPa 0,0 l/m 33,7 km/h (5 Bft) SO 125 0 min 0 W/m -4,3 C -14,0 C 33,7 km/h (5 Bft)
10.02.2007 18:00 0,1 C 71 % 1010,5 hPa 0,0 l/m 38,1 km/h (6 Bft) SO 125 0 min 0 W/m -4,5 C -15,4 C 38,1 km/h (6 Bft)
10.02.2007 18:15 0,1 C 71 % 1010,5 hPa 0,0 l/m 36,8 km/h (5 Bft) O-SO 115 0 min 0 W/m -4,5 C -15,1 C 36,8 km/h (5 Bft)
10.02.2007 18:30 0,1 C 72 % 1010,5 hPa 0,0 l/m 36,4 km/h (5 Bft) SO 125 0 min 0 W/m -4,3 C -15,0 C 36,4 km/h (5 Bft)
10.02.2007 18:45 0,1 C 71 % 1010,5 hPa 0,0 l/m 34,5 km/h (5 Bft) O-SO 115 0 min 0 W/m -4,5 C -14,5 C 34,5 km/h (5 Bft)
10.02.2007 19:00 0,0 C 70 % 1010,5 hPa 0,0 l/m 44,3 km/h (6 Bft) O-SO 105 0 min 0 W/m -4,8 C -16,8 C 44,3 km/h (6 Bft)
10.02.2007 19:15 0,0 C 70 % 1010,5 hPa 0,0 l/m 29,7 km/h (5 Bft) SO 125 0 min 0 W/m -4,8 C -13,3 C 29,7 km/h (5 Bft)
10.02.2007 19:30 -0,2 C 69 % 1010,5 hPa 0,0 l/m 37,8 km/h (5 Bft) O-SO 115 0 min 0 W/m -5,2 C -15,8 C 37,8 km/h (5 Bft)
10.02.2007 19:45 -0,2 C 69 % 1010,5 hPa 0,0 l/m 34,8 km/h (5 Bft) SO 140 0 min 0 W/m -5,2 C -15,0 C 34,8 km/h (5 Bft)
10.02.2007 20:00 -0,2 C 70 % 1010,5 hPa 0,0 l/m 35,1 km/h (5 Bft) SO 135 0 min 0 W/m -5,0 C -15,1 C 35,1 km/h (5 Bft)
10.02.2007 20:15 -0,3 C 70 % 1010,5 hPa 0,0 l/m 36,4 km/h (5 Bft) O-SO 115 0 min 0 W/m -5,1 C -15,6 C 36,4 km/h (5 Bft)
10.02.2007 20:30 -0,5 C 70 % 1010,5 hPa 0,0 l/m 37,8 km/h (5 Bft) SO 130 0 min 0 W/m -5,3 C -16,2 C 37,8 km/h (5 Bft)
10.02.2007 20:45 -0,5 C 70 % 1010,5 hPa 0,0 l/m 40,7 km/h (6 Bft) SO 125 0 min 0 W/m -5,3 C -16,8 C 40,7 km/h (6 Bft)
10.02.2007 21:00 -0,6 C 70 % 1010,5 hPa 0,0 l/m 39,6 km/h (6 Bft) SO 125 0 min 0 W/m -5,4 C -16,7 C 39,6 km/h (6 Bft)
10.02.2007 21:15 -0,6 C 71 % 1010,5 hPa 0,0 l/m 35,9 km/h (5 Bft) SO 130 0 min 0 W/m -5,2 C -15,9 C 35,9 km/h (5 Bft)
10.02.2007 21:30 -0,6 C 71 % 1010,5 hPa 0,0 l/m 36,4 km/h (5 Bft) SO 130 0 min 0 W/m -5,2 C -16,0 C 36,4 km/h (5 Bft)
10.02.2007 21:45 -0,6 C 72 % 1009,5 hPa 0,0 l/m 39,4 km/h (6 Bft) SO 125 0 min 0 W/m -5,0 C -16,7 C 39,4 km/h (6 Bft)
10.02.2007 22:00 -0,7 C 70 % 1009,5 hPa 0,0 l/m 47,2 km/h (6 Bft) O-SO 120 0 min 0 W/m -5,5 C -18,3 C 47,2 km/h (6 Bft)
10.02.2007 22:15 -0,8 C 71 % 1009,5 hPa 0,0 l/m 36,5 km/h (5 Bft) O-SO 120 0 min 0 W/m -5,4 C -16,3 C 36,5 km/h (5 Bft)
10.02.2007 22:30 -0,9 C 71 % 1009,5 hPa 0,0 l/m 37,1 km/h (5 Bft) SO 135 0 min 0 W/m -5,5 C -16,6 C 37,1 km/h (5 Bft)
10.02.2007 22:45 -1,0 C 71 % 1009,5 hPa 0,0 l/m 41,2 km/h (6 Bft) SO 135 0 min 0 W/m -5,6 C -17,7 C 41,2 km/h (6 Bft)
10.02.2007 23:00 -1,1 C 72 % 1009,5 hPa 0,0 l/m 37,3 km/h (5 Bft) SO 135 0 min 0 W/m -5,5 C -17,0 C 37,3 km/h (5 Bft)
10.02.2007 23:15 -1,1 C 73 % 1009,5 hPa 0,0 l/m 35,3 km/h (5 Bft) SO 130 0 min 0 W/m -5,3 C -16,5 C 35,3 km/h (5 Bft)
10.02.2007 23:30 -1,2 C 73 % 1008,5 hPa 0,0 l/m 37,5 km/h (5 Bft) O-SO 120 0 min 0 W/m -5,4 C -17,1 C 37,5 km/h (5 Bft)
10.02.2007 23:45 -1,3 C 75 % 1008,5 hPa 0,0 l/m 36,3 km/h (5 Bft) SO 130 0 min 0 W/m -5,1 C -17,0 C 36,3 km/h (5 Bft)
_ Min-Zeit 23:45 15:00 23:30 - 00:45 - - - - 22:45 22:00 00:45
Minimum _ -1,3 C 67 % 1008,5 hPa - 21,0 km/h (4 Bft) - - - - -5,6 C -18,3 C 21,0 km/h (4 Bft)
_ Max-Zeit 15:00 00:00 00:30 12:15 15:15 - - 00:00 00:00 00:00 00:45 15:15
Maximum _ 1,4 C 86 % 1010,5 hPa 0,9 l/m 47,6 km/h
O-SO (6 Bft)
- - 0 min 0 W/m -1,2 C -9,3 C 47,6 km/h
O-SO (6 Bft)
Durchschnitt _ 0,2 C 75 % 1009,9 hPa #0,9 l/m 34,7 km/h (5 Bft) O-SO - #0 min. 0 W/m -3,7 C -14,2 C 34,7 km/h (5 Bft)
copyright by Holger Just